createdAt,value
2023-01-15T00:00:33.398Z,99869.36
2023-01-15T00:03:42.992Z,99859.88
2023-01-15T00:06:37.508Z,99855.27
2023-01-15T00:09:28.568Z,99841.59
2023-01-15T00:12:18.738Z,99837.98
2023-01-15T00:15:13.058Z,99839.38
2023-01-15T00:18:04.621Z,99821.05
2023-01-15T00:21:02.097Z,99828.41
2023-01-15T00:24:11.118Z,99814.37
2023-01-15T00:27:09.471Z,99810.48
2023-01-15T00:30:01.383Z,99807.19
2023-01-15T00:32:51.200Z,99799.43
2023-01-15T00:35:41.075Z,99797.42
2023-01-15T00:38:21.273Z,99804.12
2023-01-15T00:41:11.974Z,99793.06
2023-01-15T00:44:06.023Z,99793.08
2023-01-15T00:46:55.129Z,99790.30
2023-01-15T00:49:43.934Z,99791.14
2023-01-15T00:52:41.212Z,99787.08
2023-01-15T00:55:30.501Z,99773.89
2023-01-15T00:58:21.272Z,99773.98
2023-01-15T01:01:12.720Z,99772.55
2023-01-15T01:04:03.022Z,99762.41
2023-01-15T01:06:54.091Z,99763.27
2023-01-15T01:09:43.262Z,99753.85
2023-01-15T01:12:38.056Z,99753.55
2023-01-15T01:15:27.242Z,99750.69
2023-01-15T01:18:16.811Z,99764.64
2023-01-15T01:21:11.925Z,99757.18
2023-01-15T01:24:02.412Z,99753.30
2023-01-15T01:26:54.442Z,99746.30
2023-01-15T01:29:44.471Z,99733.80
2023-01-15T01:32:43.542Z,99740.12
2023-01-15T01:35:33.838Z,99738.30
2023-01-15T01:38:22.991Z,99741.80
2023-01-15T01:41:14.153Z,99742.52
2023-01-15T01:44:28.691Z,99733.50
2023-01-15T01:47:32.735Z,99729.77
2023-01-15T01:50:23.955Z,99718.46
2023-01-15T01:53:19.310Z,99712.67
2023-01-15T01:56:12.168Z,99699.94
2023-01-15T01:59:13.474Z,99685.14
2023-01-15T02:02:03.065Z,99676.10
2023-01-15T02:04:53.154Z,99677.02
2023-01-15T02:07:52.448Z,99675.11
2023-01-15T02:10:42.437Z,99677.62
2023-01-15T02:13:38.897Z,99681.59
2023-01-15T02:16:40.015Z,99681.19
2023-01-15T02:19:42.675Z,99689.09
2023-01-15T02:22:44.898Z,99681.42
2023-01-15T02:25:51.734Z,99684.69
2023-01-15T02:28:46.843Z,99669.94
2023-01-15T02:31:40.997Z,99680.05
2023-01-15T02:34:35.891Z,99671.67
2023-01-15T02:37:37.813Z,99675.56
2023-01-15T02:40:24.535Z,99670.93
2023-01-15T02:43:16.810Z,99656.81
2023-01-15T02:46:14.730Z,99662.20
2023-01-15T02:49:07.381Z,99659.88
2023-01-15T02:52:02.585Z,99638.17
2023-01-15T02:54:56.612Z,99630.98
2023-01-15T02:57:51.642Z,99607.73
2023-01-15T03:00:24.315Z,99605.58
2023-01-15T03:03:18.676Z,99611.42
2023-01-15T03:06:08.819Z,99597.08
2023-01-15T03:09:00.258Z,99600.95
2023-01-15T03:12:02.163Z,99590.80
2023-01-15T03:15:03.610Z,99582.85
2023-01-15T03:17:55.849Z,99580.05
2023-01-15T03:20:51.072Z,99573.28
2023-01-15T03:23:46.395Z,99566.13
2023-01-15T03:26:35.578Z,99570.20
2023-01-15T03:29:25.142Z,99581.55
2023-01-15T03:32:23.796Z,99566.91
2023-01-15T03:35:43.790Z,99573.95
2023-01-15T03:38:35.427Z,99545.62
2023-01-15T03:41:33.483Z,99552.41
2023-01-15T03:44:32.602Z,99539.71
2023-01-15T03:47:34.028Z,99539.18
2023-01-15T03:50:32.041Z,99543.32
2023-01-15T03:53:24.669Z,99539.90
2023-01-15T03:56:29.307Z,99545.18
2023-01-15T03:59:22.042Z,99537.38
2023-01-15T04:02:15.049Z,99516.15
2023-01-15T04:05:04.710Z,99508.96
2023-01-15T04:07:56.425Z,99505.11
2023-01-15T04:10:54.176Z,99505.39
2023-01-15T04:13:47.748Z,99496.40
2023-01-15T04:17:00.691Z,99499.73
2023-01-15T04:19:43.919Z,99490.41
2023-01-15T04:22:36.035Z,99491.41
2023-01-15T04:25:25.459Z,99485.81
2023-01-15T04:28:21.974Z,99471.86
2023-01-15T04:31:15.991Z,99461.91
2023-01-15T04:34:05.427Z,99454.34
2023-01-15T04:36:55.013Z,99439.66
2023-01-15T04:40:35.162Z,99438.19
2023-01-15T04:43:15.862Z,99437.52
2023-01-15T04:47:07.890Z,99437.30
2023-01-15T04:49:24.790Z,99436.77
2023-01-15T04:52:20.887Z,99430.23
2023-01-15T04:55:11.381Z,99431.39
2023-01-15T04:58:04.554Z,99431.55
2023-01-15T05:00:53.635Z,99431.94
2023-01-15T05:03:45.841Z,99428.97
2023-01-15T05:06:35.933Z,99424.36
2023-01-15T05:09:25.326Z,99426.70
2023-01-15T05:12:19.530Z,99420.25
2023-01-15T05:15:12.748Z,99419.05
2023-01-15T05:18:04.272Z,99410.30
2023-01-15T05:20:53.998Z,99404.95
2023-01-15T05:23:45.071Z,99393.98
2023-01-15T05:26:35.288Z,99395.54
2023-01-15T05:29:25.773Z,99398.79
2023-01-15T05:32:16.900Z,99404.70
2023-01-15T05:35:08.589Z,99399.30
2023-01-15T05:37:56.678Z,99399.08
2023-01-15T05:40:53.888Z,99396.52
2023-01-15T05:43:43.166Z,99393.27
2023-01-15T05:46:34.975Z,99402.80
2023-01-15T05:49:29.416Z,99402.67
2023-01-15T05:52:22.853Z,99401.18
2023-01-15T05:55:05.716Z,99399.87
2023-01-15T05:57:59.958Z,99389.79
2023-01-15T06:00:57.436Z,99379.42
2023-01-15T06:03:55.604Z,99386.81
2023-01-15T06:06:45.671Z,99371.16
2023-01-15T06:09:35.204Z,99372.54
2023-01-15T06:12:21.385Z,99362.96
2023-01-15T06:15:12.343Z,99357.15
2023-01-15T06:18:24.265Z,99356.52
2023-01-15T06:21:15.024Z,99350.04
2023-01-15T06:24:11.367Z,99347.67
2023-01-15T06:27:03.386Z,99346.37
2023-01-15T06:29:43.455Z,99344.46
2023-01-15T06:33:22.347Z,99340.27
2023-01-15T06:35:42.897Z,99336.48
2023-01-15T06:38:35.097Z,99344.04
2023-01-15T06:41:45.600Z,99352.23
2023-01-15T06:44:53.261Z,99358.48
2023-01-15T06:47:47.218Z,99360.94
2023-01-15T06:50:37.129Z,99350.60
2023-01-15T06:53:30.590Z,99337.23
2023-01-15T06:56:25.982Z,99332.03
2023-01-15T06:59:15.735Z,99334.48
2023-01-15T07:02:07.387Z,99336.00
2023-01-15T07:04:48.923Z,99337.61
2023-01-15T07:07:38.847Z,99333.48
2023-01-15T07:10:29.464Z,99325.39
2023-01-15T07:13:28.994Z,99323.31
2023-01-15T07:16:27.743Z,99319.59
2023-01-15T07:19:11.578Z,99324.42
2023-01-15T07:22:01.873Z,99323.60
2023-01-15T07:24:54.435Z,99327.12
2023-01-15T07:27:45.723Z,99321.39
2023-01-15T07:30:35.089Z,99316.12
2023-01-15T07:33:26.861Z,99311.91
2023-01-15T07:36:16.141Z,99305.55
2023-01-15T07:39:05.645Z,99303.42
2023-01-15T07:42:18.295Z,99300.73
2023-01-15T07:45:30.017Z,99296.87
2023-01-15T07:48:37.724Z,99296.20
2023-01-15T07:51:29.107Z,99296.95
2023-01-15T07:54:18.426Z,99295.52
2023-01-15T07:57:09.494Z,99293.06
2023-01-15T08:00:04.281Z,99294.54
2023-01-15T08:03:17.283Z,99294.96
2023-01-15T08:06:07.801Z,99290.63
2023-01-15T08:09:07.988Z,99291.60
2023-01-15T08:12:19.553Z,99292.77
2023-01-15T08:15:15.861Z,99286.45
2023-01-15T08:18:06.607Z,99287.58
2023-01-15T08:21:01.952Z,99283.44
2023-01-15T08:23:42.759Z,99284.17
2023-01-15T08:26:33.342Z,99272.83
2023-01-15T08:29:27.424Z,99280.86
2023-01-15T08:32:07.401Z,99265.89
2023-01-15T08:35:01.751Z,99267.92
2023-01-15T08:37:51.338Z,99261.77
2023-01-15T08:40:55.980Z,99265.98
2023-01-15T08:43:45.674Z,99260.16
2023-01-15T08:46:35.646Z,99260.40
2023-01-15T08:49:31.546Z,99264.44
2023-01-15T08:52:20.943Z,99260.64
2023-01-15T08:55:10.922Z,99263.77
2023-01-15T08:58:05.217Z,99265.23
2023-01-15T09:00:57.804Z,99264.27
2023-01-15T09:03:52.605Z,99261.30
2023-01-15T09:06:42.287Z,99267.02
2023-01-15T09:09:33.765Z,99261.98
2023-01-15T09:12:36.481Z,99261.77
2023-01-15T09:15:30.635Z,99259.86
2023-01-15T09:18:20.884Z,99258.57
2023-01-15T09:21:11.633Z,99251.77
2023-01-15T09:24:09.202Z,99251.25
2023-01-15T09:27:02.879Z,99246.11
2023-01-15T09:29:53.214Z,99239.51
2023-01-15T09:33:05.160Z,99252.26
2023-01-15T09:35:55.134Z,99236.91
2023-01-15T09:38:51.274Z,99244.27
2023-01-15T09:42:06.951Z,99239.67
2023-01-15T09:45:20.461Z,99239.16
2023-01-15T09:48:40.423Z,99233.07
2023-01-15T09:51:41.838Z,99239.50
2023-01-15T09:54:45.406Z,99231.85
2023-01-15T09:57:37.137Z,99228.27
2023-01-15T10:00:41.695Z,99224.83
2023-01-15T10:03:39.834Z,99220.36
2023-01-15T10:06:44.412Z,99216.73
2023-01-15T10:09:39.371Z,99213.99
2023-01-15T10:12:44.653Z,99210.42
2023-01-15T10:15:40.946Z,99211.23
2023-01-15T10:18:30.804Z,99203.95
2023-01-15T10:21:38.771Z,99199.27
2023-01-15T10:24:47.761Z,99199.97
2023-01-15T10:27:40.666Z,99197.42
2023-01-15T10:30:39.247Z,99195.48
2023-01-15T10:33:51.460Z,99188.54
2023-01-15T10:36:51.474Z,99190.93
2023-01-15T10:39:52.930Z,99186.55
2023-01-15T10:43:03.451Z,99176.28
2023-01-15T10:45:56.756Z,99172.48
2023-01-15T10:49:00.574Z,99168.86
2023-01-15T10:51:55.612Z,99168.75
2023-01-15T10:54:50.970Z,99166.18
2023-01-15T10:58:09.040Z,99158.40
2023-01-15T11:01:05.104Z,99155.08
2023-01-15T11:03:55.205Z,99156.09
2023-01-15T11:06:44.794Z,99155.85
2023-01-15T11:09:38.503Z,99151.70
2023-01-15T11:13:15.490Z,99151.78
2023-01-15T11:16:44.894Z,99146.48
2023-01-15T11:19:39.874Z,99147.33
2023-01-15T11:22:40.475Z,99136.22
2023-01-15T11:25:35.634Z,99139.81
2023-01-15T11:29:04.788Z,99145.16
2023-01-15T11:31:54.983Z,99142.75
2023-01-15T11:35:17.187Z,99140.55
2023-01-15T11:38:15.560Z,99141.03
2023-01-15T11:41:06.599Z,99137.53
2023-01-15T11:44:19.979Z,99135.42
2023-01-15T11:47:37.159Z,99131.84
2023-01-15T11:50:44.527Z,99126.67
2023-01-15T11:53:56.273Z,99126.46
2023-01-15T11:56:48.476Z,99118.56
2023-01-15T11:59:40.263Z,99117.72
2023-01-15T12:03:00.035Z,99117.39
2023-01-15T12:06:06.443Z,99109.52
2023-01-15T12:09:29.930Z,99110.53
2023-01-15T12:13:08.045Z,99111.67
2023-01-15T12:16:09.517Z,99106.98
2023-01-15T12:19:44.307Z,99108.17
2023-01-15T12:22:53.954Z,99107.50
2023-01-15T12:25:57.142Z,99103.29
2023-01-15T12:29:13.623Z,99107.93
2023-01-15T12:32:11.819Z,99100.97
2023-01-15T12:35:08.706Z,99107.02
2023-01-15T12:39:01.767Z,99108.65
2023-01-15T12:42:31.388Z,99098.30
2023-01-15T12:45:33.591Z,99103.72
2023-01-15T12:48:44.582Z,99107.71
2023-01-15T12:51:49.239Z,99106.20
2023-01-15T12:55:03.234Z,99107.43
2023-01-15T12:58:07.165Z,99104.58
2023-01-15T13:01:12.027Z,99104.44
2023-01-15T13:04:18.473Z,99107.42
2023-01-15T13:07:20.855Z,99101.77
2023-01-15T13:10:22.046Z,99094.75
2023-01-15T13:13:31.810Z,99104.91
2023-01-15T13:16:41.796Z,99098.83
2023-01-15T13:20:16.513Z,99101.72
2023-01-15T13:23:32.801Z,99094.46
2023-01-15T13:27:14.326Z,99095.23
2023-01-15T13:30:23.661Z,99102.48
2023-01-15T13:33:31.743Z,99102.73
2023-01-15T13:36:46.627Z,99107.44
2023-01-15T13:39:43.590Z,99105.90
2023-01-15T13:42:49.888Z,99101.79
2023-01-15T13:46:05.295Z,99101.58
2023-01-15T13:49:02.052Z,99098.41
2023-01-15T13:51:59.933Z,99096.15
2023-01-15T13:54:56.981Z,99101.48
2023-01-15T13:57:53.239Z,99102.81
2023-01-15T14:00:48.060Z,99099.52
2023-01-15T14:03:42.712Z,99112.98
2023-01-15T14:07:00.460Z,99120.68
2023-01-15T14:09:55.859Z,99121.70
2023-01-15T14:13:08.826Z,99118.65
2023-01-15T14:16:14.710Z,99126.49
2023-01-15T14:19:35.252Z,99134.63
2023-01-15T14:22:52.371Z,99136.13
2023-01-15T14:26:05.084Z,99135.67
2023-01-15T14:29:54.268Z,99143.75
2023-01-15T14:33:11.628Z,99150.33
2023-01-15T14:36:12.011Z,99157.61
2023-01-15T14:39:12.304Z,99154.17
2023-01-15T14:42:29.060Z,99143.94
2023-01-15T14:45:31.303Z,99155.24
2023-01-15T14:48:48.517Z,99152.08
2023-01-15T14:51:52.072Z,99147.71
2023-01-15T14:54:48.167Z,99147.27
2023-01-15T14:57:43.735Z,99148.34
2023-01-15T15:00:42.135Z,99149.63
2023-01-15T15:03:45.502Z,99141.43
2023-01-15T15:06:46.787Z,99140.20
2023-01-15T15:09:50.894Z,99142.58
2023-01-15T15:12:55.437Z,99136.23
2023-01-15T15:16:00.350Z,99140.80
2023-01-15T15:19:10.076Z,99143.70
2023-01-15T15:22:11.554Z,99142.96
2023-01-15T15:25:12.730Z,99132.89
2023-01-15T15:28:12.203Z,99138.98
2023-01-15T15:31:03.915Z,99139.65
2023-01-15T15:34:08.947Z,99134.29
2023-01-15T15:37:06.641Z,99127.17
2023-01-15T15:39:56.651Z,99128.33
2023-01-15T15:43:29.896Z,99127.30
2023-01-15T15:46:59.753Z,99132.85
2023-01-15T15:49:56.538Z,99125.00
2023-01-15T15:52:54.663Z,99123.98
2023-01-15T15:55:49.035Z,99121.04
2023-01-15T15:58:45.170Z,99122.39
2023-01-15T16:01:42.119Z,99126.10
2023-01-15T16:04:38.160Z,99127.20
2023-01-15T16:07:49.421Z,99136.64
2023-01-15T16:10:44.079Z,99139.19
2023-01-15T16:13:31.341Z,99144.79
2023-01-15T16:16:22.697Z,99151.15
2023-01-15T16:19:16.100Z,99149.79
2023-01-15T16:22:16.752Z,99160.42
2023-01-15T16:25:23.742Z,99158.23
2023-01-15T16:28:28.368Z,99152.25
2023-01-15T16:31:23.311Z,99155.86
2023-01-15T16:34:21.347Z,99163.41
2023-01-15T16:37:31.372Z,99166.59
2023-01-15T16:40:32.468Z,99173.08
2023-01-15T16:43:30.398Z,99179.83
2023-01-15T16:46:40.259Z,99180.16
2023-01-15T16:49:36.123Z,99182.34
2023-01-15T16:52:54.172Z,99190.14
2023-01-15T16:55:56.394Z,99194.80
2023-01-15T16:58:48.886Z,99196.28
2023-01-15T17:01:50.207Z,99198.96
2023-01-15T17:04:48.758Z,99200.27
2023-01-15T17:07:49.375Z,99200.40
2023-01-15T17:10:53.236Z,99200.11
2023-01-15T17:13:46.811Z,99205.98
2023-01-15T17:16:40.376Z,99210.39
2023-01-15T17:19:33.122Z,99211.53
2023-01-15T17:22:45.383Z,99218.50
2023-01-15T17:25:38.881Z,99217.13
2023-01-15T17:28:31.651Z,99225.06
2023-01-15T17:31:30.616Z,99225.85
2023-01-15T17:34:25.793Z,99233.62
2023-01-15T17:37:19.725Z,99237.23
2023-01-15T17:40:14.806Z,99241.44
2023-01-15T17:43:07.933Z,99240.83
2023-01-15T17:46:03.969Z,99251.27
2023-01-15T17:49:09.629Z,99261.14
2023-01-15T17:52:06.389Z,99269.37
2023-01-15T17:55:21.448Z,99275.58
2023-01-15T17:58:35.770Z,99284.11
2023-01-15T18:01:56.196Z,99289.65
2023-01-15T18:05:14.919Z,99290.36
2023-01-15T18:08:15.308Z,99296.40
2023-01-15T18:11:09.294Z,99298.90
2023-01-15T18:14:26.442Z,99295.69
2023-01-15T18:17:21.671Z,99293.38
2023-01-15T18:20:17.388Z,99298.77
2023-01-15T18:23:28.791Z,99305.66
2023-01-15T18:26:22.621Z,99314.69
2023-01-15T18:29:16.804Z,99314.44
2023-01-15T18:32:43.581Z,99315.30
2023-01-15T18:36:29.461Z,99314.24
2023-01-15T18:38:45.243Z,99318.61
2023-01-15T18:42:00.943Z,99319.54
2023-01-15T18:45:11.529Z,99320.70
2023-01-15T18:48:18.743Z,99328.75
2023-01-15T18:50:56.085Z,99329.08
2023-01-15T18:53:52.186Z,99328.52
2023-01-15T18:56:48.297Z,99330.54
2023-01-15T18:59:45.707Z,99340.36
2023-01-15T19:02:43.979Z,99346.63
2023-01-15T19:05:43.616Z,99338.35
2023-01-15T19:08:31.713Z,99343.98
2023-01-15T19:11:24.980Z,99341.30
2023-01-15T19:14:36.292Z,99340.66
2023-01-15T19:17:56.645Z,99349.05
2023-01-15T19:20:50.175Z,99354.20
2023-01-15T19:23:45.942Z,99340.02
2023-01-15T19:26:44.777Z,99343.38
2023-01-15T19:29:46.895Z,99350.20
2023-01-15T19:32:47.079Z,99348.52
2023-01-15T19:35:46.674Z,99349.95
2023-01-15T19:38:52.232Z,99358.16
2023-01-15T19:42:07.772Z,99358.13
2023-01-15T19:45:24.255Z,99365.79
2023-01-15T19:48:37.511Z,99371.85
2023-01-15T19:51:48.723Z,99371.75
2023-01-15T19:55:00.747Z,99366.05
2023-01-15T19:58:02.421Z,99367.92
2023-01-15T20:01:59.100Z,99371.71
2023-01-15T20:04:18.439Z,99380.48
2023-01-15T20:07:17.852Z,99376.42
2023-01-15T20:10:18.593Z,99377.41
2023-01-15T20:13:38.178Z,99375.42
2023-01-15T20:16:45.347Z,99370.08
2023-01-15T20:19:31.988Z,99369.48
2023-01-15T20:22:29.468Z,99359.45
2023-01-15T20:25:28.126Z,99363.10
2023-01-15T20:28:24.112Z,99374.21
2023-01-15T20:31:23.912Z,99372.78
2023-01-15T20:34:36.311Z,99371.67
2023-01-15T20:37:46.312Z,99387.23
2023-01-15T20:40:49.598Z,99382.66
2023-01-15T20:44:07.455Z,99380.11
2023-01-15T20:48:14.233Z,99376.30
2023-01-15T20:51:01.131Z,99377.08
2023-01-15T20:54:03.818Z,99388.38
2023-01-15T22:02:46.329Z,99402.21
2023-01-15T22:05:47.001Z,99399.66
2023-01-15T22:09:04.895Z,99394.48
2023-01-15T22:11:58.546Z,99395.38
2023-01-15T22:14:58.745Z,99395.00
2023-01-15T22:18:02.603Z,99397.27
2023-01-15T22:21:01.447Z,99395.79
2023-01-15T22:23:56.767Z,99399.16
2023-01-15T22:26:55.175Z,99396.12
2023-01-15T22:29:51.209Z,99391.90
2023-01-15T22:32:48.741Z,99389.55
2023-01-15T22:35:57.113Z,99385.06
2023-01-15T22:38:54.616Z,99388.84
2023-01-15T22:42:14.628Z,99388.75
2023-01-15T22:45:16.333Z,99393.71
2023-01-15T22:48:18.618Z,99385.73
2023-01-15T22:51:16.675Z,99385.77
2023-01-15T22:54:04.929Z,99386.80
2023-01-15T22:56:59.789Z,99388.42
2023-01-15T22:59:55.665Z,99392.05
2023-01-15T23:03:05.285Z,99392.64
2023-01-15T23:06:20.376Z,99395.23
2023-01-15T23:09:15.890Z,99389.09
2023-01-15T23:12:09.556Z,99389.08
2023-01-15T23:15:03.938Z,99385.94
2023-01-15T23:17:56.628Z,99385.32
2023-01-15T23:20:52.126Z,99381.00
2023-01-15T23:23:57.304Z,99388.21
2023-01-15T23:26:59.118Z,99395.90
2023-01-15T23:29:56.091Z,99381.05
2023-01-15T23:32:52.741Z,99378.89
2023-01-15T23:35:53.148Z,99379.81
2023-01-15T23:38:52.735Z,99378.98
2023-01-15T23:42:03.436Z,99375.34
2023-01-15T23:45:17.639Z,99376.02
2023-01-15T23:48:10.441Z,99379.66
2023-01-15T23:51:05.509Z,99382.95
2023-01-15T23:54:56.996Z,99386.86
2023-01-15T23:57:24.439Z,99379.84
